createdAt,value
2023-04-04T00:00:52.406Z,7.20
2023-04-04T00:03:21.464Z,5.27
2023-04-04T00:05:51.864Z,7.43
2023-04-04T00:08:21.355Z,7.17
2023-04-04T00:10:50.060Z,5.50
2023-04-04T00:13:20.301Z,11.70
2023-04-04T00:15:50.158Z,4.90
2023-04-04T00:18:19.153Z,6.30
2023-04-04T00:20:47.936Z,7.67
2023-04-04T00:23:16.938Z,10.40
2023-04-04T00:25:50.611Z,7.70
2023-04-04T00:28:21.482Z,6.77
2023-04-04T00:30:50.585Z,7.67
2023-04-04T00:33:19.390Z,7.10
2023-04-04T00:35:50.556Z,9.13
2023-04-04T00:38:19.308Z,11.00
2023-04-04T00:40:50.820Z,5.87
2023-04-04T00:43:21.343Z,7.83
2023-04-04T00:45:50.433Z,7.87
2023-04-04T00:48:19.596Z,8.97
2023-04-04T00:50:48.609Z,8.47
2023-04-04T00:53:17.623Z,6.63
2023-04-04T00:55:46.499Z,6.00
2023-04-04T00:58:15.232Z,8.20
2023-04-04T01:00:45.453Z,6.67
2023-04-04T01:03:14.767Z,7.47
2023-04-04T01:05:43.954Z,8.33
2023-04-04T01:08:12.793Z,7.10
2023-04-04T01:10:42.444Z,5.97
2023-04-04T01:13:11.357Z,4.33
2023-04-04T01:15:41.299Z,6.57
2023-04-04T01:18:14.577Z,6.57
2023-04-04T01:20:49.141Z,5.13
2023-04-04T01:23:19.024Z,7.97
2023-04-04T01:25:50.172Z,6.43
2023-04-04T01:28:18.863Z,6.93
2023-04-04T01:30:47.671Z,5.10
2023-04-04T01:33:24.036Z,6.33
2023-04-04T01:36:01.553Z,7.20
2023-04-04T01:38:37.302Z,6.03
2023-04-04T01:41:10.563Z,7.63
2023-04-04T01:43:39.290Z,8.70
2023-04-04T01:46:08.299Z,7.33
2023-04-04T01:48:37.010Z,6.47
2023-04-04T01:51:06.427Z,9.83
2023-04-04T01:53:35.158Z,11.43
2023-04-04T01:56:03.838Z,20.20
2023-04-04T01:58:33.988Z,15.57
2023-04-04T02:01:02.673Z,10.03
2023-04-04T02:03:31.825Z,8.20
2023-04-04T02:06:00.559Z,5.80
2023-04-04T02:08:29.223Z,8.20
2023-04-04T02:10:59.848Z,8.37
2023-04-04T02:13:29.095Z,9.60
2023-04-04T02:15:59.286Z,7.30
2023-04-04T02:18:27.971Z,7.37
2023-04-04T02:20:59.573Z,9.07
2023-04-04T02:23:28.387Z,8.80
2023-04-04T02:25:57.097Z,11.30
2023-04-04T02:28:26.069Z,7.97
2023-04-04T02:30:54.781Z,9.67
2023-04-04T02:33:24.903Z,8.37
2023-04-04T02:35:53.628Z,8.23
2023-04-04T02:38:22.987Z,9.60
2023-04-04T02:40:51.673Z,9.77
2023-04-04T02:43:20.548Z,8.70
2023-04-04T02:45:49.914Z,8.67
2023-04-04T02:48:18.654Z,6.30
2023-04-04T02:50:49.595Z,10.10
2023-04-04T02:53:18.421Z,9.77
2023-04-04T02:55:47.524Z,9.37
2023-04-04T02:58:16.440Z,6.33
2023-04-04T03:00:47.366Z,7.93
2023-04-04T03:03:16.560Z,8.57
2023-04-04T03:05:45.953Z,9.83
2023-04-04T03:08:16.435Z,7.40
2023-04-04T03:10:47.301Z,8.10
2023-04-04T03:13:16.009Z,5.97
2023-04-04T03:15:47.480Z,9.40
2023-04-04T03:18:16.718Z,9.60
2023-04-04T03:20:45.520Z,7.50
2023-04-04T03:23:15.647Z,8.53
2023-04-04T03:25:44.404Z,11.43
2023-04-04T03:28:13.704Z,8.43
2023-04-04T03:30:42.565Z,10.43
2023-04-04T03:33:11.556Z,10.47
2023-04-04T03:35:40.939Z,7.80
2023-04-04T03:38:10.034Z,8.87
2023-04-04T03:40:40.471Z,8.67
2023-04-04T03:43:09.302Z,11.43
2023-04-04T03:45:38.201Z,7.80
2023-04-04T03:48:07.501Z,8.33
2023-04-04T03:50:38.417Z,11.50
2023-04-04T03:53:07.386Z,10.00
2023-04-04T03:55:36.223Z,8.67
2023-04-04T03:58:06.401Z,7.60
2023-04-04T04:00:35.125Z,6.30
2023-04-04T04:03:03.892Z,7.50
2023-04-04T04:05:32.592Z,10.50
2023-04-04T04:08:01.374Z,8.43
2023-04-04T04:10:30.107Z,9.87
2023-04-04T04:12:58.821Z,7.27
2023-04-04T04:15:28.951Z,13.03
2023-04-04T04:17:57.681Z,8.77
2023-04-04T04:20:26.781Z,13.43
2023-04-04T04:22:55.536Z,11.17
2023-04-04T04:25:24.745Z,14.63
2023-04-04T04:27:56.575Z,10.20
2023-04-04T04:30:25.463Z,16.30
2023-04-04T04:32:56.439Z,15.70
2023-04-04T04:35:25.324Z,12.47
2023-04-04T04:37:54.058Z,13.60
2023-04-04T04:40:22.886Z,18.37
2023-04-04T04:42:53.118Z,12.77
2023-04-04T04:45:22.144Z,10.00
2023-04-04T04:47:51.410Z,9.37
2023-04-04T04:50:21.747Z,11.37
2023-04-04T04:52:52.739Z,18.20
2023-04-04T04:55:21.570Z,11.37
2023-04-04T04:57:50.341Z,11.37
2023-04-04T05:00:20.506Z,8.27
2023-04-04T05:02:50.472Z,8.73
2023-04-04T05:05:20.876Z,8.67
2023-04-04T05:07:49.692Z,9.60
2023-04-04T05:10:18.530Z,14.33
2023-04-04T05:12:47.310Z,9.20
2023-04-04T05:15:16.412Z,9.00
2023-04-04T05:17:45.144Z,7.90
2023-04-04T05:20:14.118Z,9.13
2023-04-04T05:22:46.436Z,12.30
2023-04-04T05:25:15.580Z,9.87
2023-04-04T05:27:44.404Z,9.30
2023-04-04T05:30:13.934Z,8.97
2023-04-04T05:32:43.049Z,10.07
2023-04-04T05:35:11.854Z,8.33
2023-04-04T05:37:43.788Z,10.70
2023-04-04T05:40:14.703Z,11.63
2023-04-04T05:42:44.144Z,8.37
2023-04-04T05:45:13.114Z,9.53
2023-04-04T05:47:46.159Z,9.60
2023-04-04T05:50:15.046Z,11.23
2023-04-04T05:52:43.872Z,7.73
2023-04-04T05:55:14.110Z,9.97
2023-04-04T05:57:49.827Z,11.00
2023-04-04T06:00:19.831Z,10.03
2023-04-04T06:02:48.758Z,9.50
2023-04-04T06:05:18.104Z,12.83
2023-04-04T06:07:46.947Z,9.40
2023-04-04T06:10:17.210Z,13.57
2023-04-04T06:12:45.973Z,16.67
2023-04-04T06:15:14.797Z,10.70
2023-04-04T06:17:43.713Z,12.60
2023-04-04T06:20:13.294Z,7.90
2023-04-04T06:22:42.120Z,7.60
2023-04-04T06:25:11.826Z,8.97
2023-04-04T06:27:42.767Z,11.73
2023-04-04T06:30:14.749Z,13.20
2023-04-04T06:32:43.870Z,14.50
2023-04-04T06:35:12.641Z,8.37
2023-04-04T06:37:41.453Z,8.60
2023-04-04T06:40:11.463Z,7.60
2023-04-04T06:42:42.144Z,9.70
2023-04-04T06:45:11.623Z,10.60
2023-04-04T06:47:40.518Z,10.40
2023-04-04T06:50:11.211Z,7.57
2023-04-04T06:52:40.545Z,8.50
2023-04-04T06:55:10.014Z,7.67
2023-04-04T06:57:39.623Z,6.00
2023-04-04T07:00:12.188Z,7.60
2023-04-04T07:02:41.667Z,9.40
2023-04-04T07:05:11.588Z,8.00
2023-04-04T07:07:40.562Z,8.27
2023-04-04T07:10:10.835Z,5.70
2023-04-04T07:12:39.704Z,6.03
2023-04-04T07:15:11.794Z,6.67
2023-04-04T07:17:41.466Z,7.13
2023-04-04T07:20:11.888Z,8.07
2023-04-04T07:22:41.129Z,5.30
2023-04-04T07:25:11.150Z,8.73
2023-04-04T07:27:41.209Z,6.67
2023-04-04T07:30:13.226Z,4.30
2023-04-04T07:32:42.211Z,4.13
2023-04-04T07:35:12.007Z,4.80
2023-04-04T07:37:42.346Z,5.40
2023-04-04T07:40:13.506Z,4.80
2023-04-04T07:42:46.734Z,5.87
2023-04-04T07:45:17.129Z,4.90
2023-04-04T07:47:46.354Z,4.20
2023-04-04T07:50:16.056Z,6.90
2023-04-04T07:52:50.030Z,4.00
2023-04-04T07:55:20.506Z,6.90
2023-04-04T07:57:49.380Z,6.13
2023-04-04T08:00:22.210Z,4.03
2023-04-04T08:02:54.259Z,3.70
2023-04-04T08:05:24.088Z,4.47
2023-04-04T08:07:53.277Z,4.80
2023-04-04T08:10:22.309Z,4.00
2023-04-04T08:12:51.139Z,3.20
2023-04-04T08:15:21.497Z,2.87
2023-04-04T08:17:50.412Z,2.37
2023-04-04T08:20:19.343Z,5.93
2023-04-04T08:22:48.633Z,3.73
2023-04-04T08:25:17.931Z,4.73
2023-04-04T08:27:47.679Z,5.70
2023-04-04T08:30:17.057Z,3.00
2023-04-04T08:32:47.721Z,4.70
2023-04-04T08:35:16.625Z,4.10
2023-04-04T08:37:48.696Z,4.47
2023-04-04T08:40:17.949Z,3.33
2023-04-04T08:42:47.261Z,3.50
2023-04-04T08:45:20.142Z,4.23
2023-04-04T08:47:55.532Z,5.13
2023-04-04T08:50:28.003Z,4.10
2023-04-04T08:52:59.583Z,2.93
2023-04-04T08:55:29.394Z,3.90
2023-04-04T08:57:58.048Z,3.00
2023-04-04T09:00:26.816Z,8.63
2023-04-04T09:03:02.613Z,4.23
2023-04-04T09:05:32.016Z,5.67
2023-04-04T09:08:01.319Z,3.70
2023-04-04T09:10:30.062Z,3.40
2023-04-04T09:13:12.520Z,3.10
2023-04-04T09:15:49.611Z,3.00
2023-04-04T09:18:19.948Z,2.83
2023-04-04T09:20:49.548Z,3.37
2023-04-04T09:23:20.950Z,3.60
2023-04-04T09:28:24.394Z,3.10
2023-04-04T09:30:54.836Z,4.10
2023-04-04T09:33:25.662Z,3.93
2023-04-04T09:35:57.199Z,7.17
2023-04-04T09:38:27.824Z,6.57
2023-04-04T09:40:57.339Z,7.07
2023-04-04T09:43:31.080Z,4.83
2023-04-04T09:46:02.196Z,3.97
2023-04-04T09:48:34.242Z,5.73
2023-04-04T09:51:08.359Z,4.97
2023-04-04T09:53:38.510Z,4.97
2023-04-04T09:56:08.629Z,4.93
2023-04-04T09:58:44.281Z,3.80
2023-04-04T10:01:19.697Z,3.37
2023-04-04T10:03:55.295Z,4.97
2023-04-04T10:06:24.452Z,7.00
2023-04-04T10:08:53.272Z,4.57
2023-04-04T10:11:33.829Z,3.90
2023-04-04T10:14:04.307Z,5.00
2023-04-04T10:16:34.758Z,8.27
2023-04-04T10:19:08.090Z,4.93
2023-04-04T10:21:38.238Z,4.80
2023-04-04T10:24:11.039Z,5.77
2023-04-04T10:26:40.744Z,3.30
2023-04-04T10:29:09.878Z,5.03
2023-04-04T10:31:42.213Z,3.73
2023-04-04T10:34:22.322Z,13.63
2023-04-04T10:36:53.614Z,4.63
2023-04-04T10:39:27.837Z,3.93
2023-04-04T10:42:00.161Z,4.10
2023-04-04T10:44:34.179Z,5.40
2023-04-04T10:47:10.846Z,5.10
2023-04-04T10:49:41.707Z,4.93
2023-04-04T10:52:13.592Z,5.90
2023-04-04T10:54:44.344Z,3.20
2023-04-04T10:57:14.443Z,2.40
2023-04-04T10:59:59.227Z,3.80
2023-04-04T11:02:50.244Z,4.00
2023-04-04T11:05:25.643Z,4.60
2023-04-04T11:10:32.748Z,3.53
2023-04-04T11:13:13.664Z,3.60
2023-04-04T11:15:57.112Z,3.57
2023-04-04T11:18:49.254Z,3.30
2023-04-04T11:21:24.073Z,3.77
2023-04-04T11:24:26.614Z,4.10
2023-04-04T11:26:57.218Z,3.00
2023-04-04T11:29:53.744Z,2.83
2023-04-04T11:33:03.725Z,4.67
2023-04-04T11:35:35.579Z,4.43
2023-04-04T11:38:05.722Z,3.63
2023-04-04T11:40:41.558Z,4.50
2023-04-04T11:43:12.633Z,8.90
2023-04-04T11:45:46.567Z,4.57
2023-04-04T11:48:17.798Z,3.73
2023-04-04T11:50:51.908Z,5.47
2023-04-04T11:53:22.482Z,6.30
2023-04-04T11:55:56.749Z,4.10
2023-04-04T11:58:25.728Z,5.23
2023-04-04T12:00:54.584Z,6.67
2023-04-04T12:03:25.043Z,9.13
2023-04-04T12:05:54.089Z,4.00
2023-04-04T12:08:25.358Z,6.70
2023-04-04T12:10:54.990Z,4.50
2023-04-04T12:13:32.701Z,3.20
2023-04-04T12:16:01.702Z,4.40
2023-04-04T12:18:32.296Z,3.50
2023-04-04T12:21:02.374Z,4.17
2023-04-04T12:23:37.095Z,4.40
2023-04-04T12:26:07.710Z,6.90
2023-04-04T12:28:38.424Z,5.50
2023-04-04T12:31:08.835Z,5.97
2023-04-04T12:33:38.376Z,4.30
2023-04-04T12:36:08.186Z,6.33
2023-04-04T12:38:58.030Z,5.23
2023-04-04T12:41:28.217Z,4.23
2023-04-04T12:44:06.357Z,5.33
2023-04-04T12:46:40.277Z,4.40
2023-04-04T12:49:09.830Z,4.57
2023-04-04T12:51:39.702Z,6.77
2023-04-04T12:54:25.984Z,6.60
2023-04-04T12:56:58.566Z,6.67
2023-04-04T12:59:30.977Z,4.30
2023-04-04T13:02:02.339Z,5.03
2023-04-04T13:04:31.588Z,3.63
2023-04-04T13:07:00.866Z,5.00
2023-04-04T13:09:32.192Z,5.33
2023-04-04T13:12:03.392Z,4.80
2023-04-04T13:15:00.214Z,5.97
2023-04-04T13:17:46.477Z,5.30
2023-04-04T13:20:17.100Z,4.03
2023-04-04T13:22:46.609Z,4.47
2023-04-04T13:25:17.383Z,5.73
2023-04-04T13:27:46.298Z,3.53
2023-04-04T13:30:15.784Z,3.33
2023-04-04T13:32:44.869Z,3.90
2023-04-04T13:35:15.420Z,3.40
2023-04-04T13:37:44.523Z,3.90
2023-04-04T13:40:14.782Z,3.40
2023-04-04T13:42:45.093Z,4.80
2023-04-04T13:45:15.158Z,3.20
2023-04-04T13:47:44.036Z,2.60
2023-04-04T13:50:13.156Z,3.07
2023-04-04T13:52:42.185Z,4.10
2023-04-04T13:55:12.421Z,4.10
2023-04-04T13:57:41.262Z,3.90
2023-04-04T14:00:13.667Z,3.47
2023-04-04T14:02:42.664Z,5.03
2023-04-04T14:05:12.087Z,11.30
2023-04-04T14:07:41.432Z,4.67
2023-04-04T14:10:14.533Z,3.87
2023-04-04T14:12:43.282Z,4.97
2023-04-04T14:15:14.270Z,3.30
2023-04-04T14:17:44.987Z,11.83
2023-04-04T14:20:14.329Z,4.23
2023-04-04T14:22:45.161Z,4.83
2023-04-04T14:25:13.930Z,5.47
2023-04-04T14:27:43.120Z,6.00
2023-04-04T14:30:15.321Z,8.07
2023-04-04T14:32:44.273Z,5.97
2023-04-04T14:35:13.278Z,5.60
2023-04-04T14:37:42.195Z,6.60
2023-04-04T14:40:11.460Z,9.20
2023-04-04T14:42:40.309Z,8.30
2023-04-04T14:45:12.588Z,3.77
2023-04-04T14:47:43.221Z,5.27
2023-04-04T14:50:12.561Z,3.23
2023-04-04T14:52:41.900Z,4.03
2023-04-04T14:55:12.703Z,7.97
2023-04-04T14:57:57.103Z,4.50
2023-04-04T15:00:30.092Z,3.70
2023-04-04T15:03:00.790Z,3.50
2023-04-04T15:05:30.369Z,7.10
2023-04-04T15:07:59.301Z,4.30
2023-04-04T15:10:28.080Z,6.20
2023-04-04T15:12:56.903Z,8.00
2023-04-04T15:15:28.980Z,4.87
2023-04-04T15:17:57.978Z,6.93
2023-04-04T15:20:28.364Z,6.37
2023-04-04T15:22:57.199Z,6.30
2023-04-04T15:25:26.596Z,10.53
2023-04-04T15:27:55.331Z,3.80
2023-04-04T15:30:24.434Z,3.17
2023-04-04T15:32:54.386Z,6.30
2023-04-04T15:35:23.645Z,4.03
2023-04-04T15:37:53.751Z,3.60
2023-04-04T15:40:22.748Z,4.20
2023-04-04T15:42:51.567Z,3.10
2023-04-04T15:45:20.810Z,9.83
2023-04-04T15:47:49.584Z,4.10
2023-04-04T15:50:18.445Z,9.77
2023-04-04T15:52:47.213Z,5.90
2023-04-04T15:55:17.927Z,4.70
2023-04-04T15:57:47.192Z,7.07
2023-04-04T16:00:17.159Z,4.67
2023-04-04T16:02:46.300Z,5.07
2023-04-04T16:05:15.080Z,5.50
2023-04-04T16:07:43.851Z,4.33
2023-04-04T16:10:12.833Z,5.80
2023-04-04T16:12:43.163Z,4.00
2023-04-04T16:15:13.746Z,5.00
2023-04-04T16:17:42.914Z,7.03
2023-04-04T16:20:13.719Z,4.57
2023-04-04T16:22:55.724Z,5.13
2023-04-04T16:25:25.232Z,6.90
2023-04-04T16:27:55.754Z,6.13
2023-04-04T16:30:24.899Z,6.30
2023-04-04T16:32:53.562Z,6.00
2023-04-04T16:35:22.675Z,6.80
2023-04-04T16:37:52.299Z,5.33
2023-04-04T16:40:22.768Z,3.70
2023-04-04T16:42:52.179Z,4.23
2023-04-04T16:45:23.113Z,6.03
2023-04-04T16:47:52.215Z,4.27
2023-04-04T16:50:21.170Z,4.50
2023-04-04T16:52:50.129Z,4.67
2023-04-04T16:55:18.906Z,3.93
2023-04-04T16:57:47.669Z,4.87
2023-04-04T17:00:17.613Z,4.57
2023-04-04T17:02:48.149Z,5.73
2023-04-04T17:05:17.715Z,4.70
2023-04-04T17:07:46.808Z,3.93
2023-04-04T17:10:16.261Z,5.37
2023-04-04T17:12:45.430Z,7.53
2023-04-04T17:15:16.205Z,8.67
2023-04-04T17:17:47.228Z,10.73
2023-04-04T17:20:19.434Z,11.00
2023-04-04T17:22:50.028Z,16.27
2023-04-04T17:25:18.941Z,11.80
2023-04-04T17:27:47.891Z,14.20
2023-04-04T17:30:18.156Z,14.37
2023-04-04T17:32:51.959Z,9.80
2023-04-04T17:35:20.993Z,10.23
2023-04-04T17:37:50.075Z,12.77
2023-04-04T17:40:21.262Z,8.23
2023-04-04T17:42:50.324Z,7.50
2023-04-04T17:45:21.189Z,7.80
2023-04-04T17:47:52.919Z,8.27
2023-04-04T17:50:22.083Z,17.43
2023-04-04T17:52:52.314Z,8.60
2023-04-04T17:55:22.521Z,9.90
2023-04-04T17:57:52.240Z,7.20
2023-04-04T18:00:22.721Z,7.00
2023-04-04T18:02:53.082Z,11.13
2023-04-04T18:05:22.965Z,11.77
2023-04-04T18:07:53.945Z,10.90
2023-04-04T18:10:23.958Z,14.00
2023-04-04T18:12:53.455Z,17.40
2023-04-04T18:15:23.395Z,19.10
2023-04-04T18:17:55.329Z,23.27
2023-04-04T18:20:32.167Z,12.63
2023-04-04T18:23:05.223Z,16.90
2023-04-04T18:25:34.978Z,18.53
2023-04-04T18:28:03.902Z,7.97
2023-04-04T18:30:35.681Z,13.83
2023-04-04T18:33:07.698Z,16.27
2023-04-04T18:35:36.888Z,22.13
2023-04-04T18:38:06.404Z,22.00
2023-04-04T18:40:35.613Z,20.00
2023-04-04T18:43:04.916Z,21.53
2023-04-04T18:45:40.470Z,20.43
2023-04-04T18:48:13.497Z,19.17
2023-04-04T18:50:43.300Z,21.83
2023-04-04T18:53:12.378Z,21.27
2023-04-04T18:55:41.187Z,17.57
2023-04-04T18:58:10.060Z,19.57
2023-04-04T19:00:40.529Z,17.90
2023-04-04T19:03:13.402Z,19.87
2023-04-04T19:05:43.504Z,17.03
2023-04-04T19:08:14.263Z,17.73
2023-04-04T19:10:47.892Z,22.80
2023-04-04T19:13:18.267Z,17.63
2023-04-04T19:15:47.226Z,18.70
2023-04-04T19:18:18.229Z,24.23
2023-04-04T19:20:47.774Z,28.50
2023-04-04T19:23:17.186Z,27.43
2023-04-04T19:25:48.115Z,22.77
2023-04-04T19:28:18.130Z,25.03
2023-04-04T19:30:49.468Z,23.20
2023-04-04T19:33:22.585Z,32.87
2023-04-04T19:35:57.015Z,29.47
2023-04-04T19:38:28.694Z,19.50
2023-04-04T19:41:00.249Z,31.10
2023-04-04T19:43:31.090Z,19.20
2023-04-04T19:46:06.525Z,18.40
2023-04-04T19:48:44.393Z,17.00
2023-04-04T19:51:43.704Z,15.93
2023-04-04T19:54:20.304Z,16.90
2023-04-04T19:56:54.138Z,19.90
2023-04-04T20:00:01.398Z,20.43
2023-04-04T20:03:18.511Z,22.13
2023-04-04T20:06:48.889Z,16.83
2023-04-04T20:09:39.793Z,18.43
2023-04-04T20:12:12.537Z,19.90
2023-04-04T20:14:42.010Z,28.53
2023-04-04T20:17:12.380Z,21.83
2023-04-04T20:19:41.215Z,24.60
2023-04-04T20:22:11.835Z,30.13
2023-04-04T20:24:43.134Z,32.40
2023-04-04T20:27:23.657Z,27.37
2023-04-04T20:29:57.453Z,15.77
2023-04-04T20:32:27.202Z,17.63
2023-04-04T20:34:56.572Z,23.53
2023-04-04T20:37:29.138Z,17.90
2023-04-04T20:39:59.692Z,27.00
2023-04-04T20:42:42.115Z,16.53
2023-04-04T20:45:42.799Z,16.13
2023-04-04T20:48:35.288Z,15.57
2023-04-04T20:51:04.924Z,14.00
2023-04-04T20:53:35.458Z,12.30
2023-04-04T20:56:06.506Z,10.67
2023-04-04T20:58:35.170Z,13.17
2023-04-04T21:01:04.355Z,16.20
2023-04-04T21:03:36.095Z,17.63
2023-04-04T21:06:14.629Z,15.70
2023-04-04T21:08:49.678Z,12.40
2023-04-04T21:11:27.512Z,15.17
2023-04-04T21:13:56.684Z,16.60
2023-04-04T21:16:27.546Z,15.70
2023-04-04T21:18:59.519Z,19.23
2023-04-04T21:21:28.907Z,15.40
2023-04-04T21:24:00.257Z,15.30
2023-04-04T21:26:34.316Z,22.03
2023-04-04T21:29:04.644Z,19.73
2023-04-04T21:31:40.753Z,19.00
2023-04-04T21:34:15.059Z,19.17
2023-04-04T21:36:44.870Z,16.23
2023-04-04T21:39:16.657Z,14.30
2023-04-04T21:41:46.309Z,11.77
2023-04-04T21:44:15.248Z,17.77
2023-04-04T21:46:44.193Z,12.23
2023-04-04T21:49:13.326Z,13.13
2023-04-04T21:51:42.561Z,18.17
2023-04-04T21:54:11.232Z,19.03
2023-04-04T21:56:41.618Z,12.70
2023-04-04T21:59:11.389Z,16.73
2023-04-04T22:01:40.984Z,18.40
2023-04-04T22:04:09.819Z,15.00
2023-04-04T22:06:38.547Z,16.03
2023-04-04T22:09:07.340Z,18.43
2023-04-04T22:11:39.012Z,16.23
2023-04-04T22:14:09.176Z,15.80
2023-04-04T22:16:40.242Z,13.57
2023-04-04T22:19:11.771Z,18.50
2023-04-04T22:21:47.147Z,13.67
2023-04-04T22:24:18.523Z,21.77
2023-04-04T22:26:47.703Z,14.13
2023-04-04T22:29:19.913Z,19.57
2023-04-04T22:31:48.613Z,19.30
2023-04-04T22:34:17.387Z,17.37
2023-04-04T22:36:47.008Z,14.47
2023-04-04T22:39:22.984Z,18.90
2023-04-04T22:41:52.081Z,15.63
2023-04-04T22:44:22.258Z,18.90
2023-04-04T22:46:52.170Z,20.17
2023-04-04T22:49:20.878Z,16.30
2023-04-04T22:51:49.713Z,16.40
2023-04-04T22:54:18.582Z,15.60
2023-04-04T22:56:47.364Z,21.33
2023-04-04T22:59:16.179Z,17.43
2023-04-04T23:01:46.512Z,17.83
2023-04-04T23:04:15.313Z,13.43
2023-04-04T23:06:45.686Z,20.67
2023-04-04T23:09:14.410Z,16.77
2023-04-04T23:11:43.086Z,19.80
2023-04-04T23:14:15.330Z,15.30
2023-04-04T23:16:45.556Z,16.30
2023-04-04T23:19:14.455Z,14.70
2023-04-04T23:21:43.152Z,16.83
2023-04-04T23:24:12.041Z,18.70
2023-04-04T23:26:40.872Z,18.27
2023-04-04T23:29:10.049Z,21.50
2023-04-04T23:31:38.802Z,17.97
2023-04-04T23:34:08.987Z,20.33
2023-04-04T23:36:37.621Z,19.07
2023-04-04T23:39:06.542Z,20.63
2023-04-04T23:41:35.551Z,16.17
2023-04-04T23:44:04.281Z,13.30
2023-04-04T23:46:33.399Z,15.13
2023-04-04T23:49:02.264Z,13.23
2023-04-04T23:51:38.365Z,14.57
2023-04-04T23:54:07.264Z,12.17
2023-04-04T23:56:37.184Z,18.53
2023-04-04T23:59:06.627Z,16.73
